createdAt,value
2019-04-10T00:04:59.495Z,8.03
2019-04-10T00:07:46.217Z,7.99
2019-04-10T00:10:32.618Z,7.92
2019-04-10T00:13:19.075Z,7.92
2019-04-10T00:16:05.647Z,7.82
2019-04-10T00:18:52.128Z,7.81
2019-04-10T00:21:20.885Z,7.81
2019-04-10T00:23:49.201Z,7.79
2019-04-10T00:26:17.458Z,7.78
2019-04-10T00:31:38.351Z,7.71
2019-04-10T00:34:06.022Z,7.70
2019-04-10T00:36:33.812Z,7.70
2019-04-10T00:39:20.219Z,7.65
2019-04-10T00:41:48.350Z,7.56
2019-04-10T00:44:17.390Z,7.56
2019-04-10T00:47:04.501Z,7.54
2019-04-10T00:49:51.864Z,7.48
2019-04-10T00:52:38.635Z,7.44
2019-04-10T00:57:42.030Z,7.36
2019-04-10T01:00:10.013Z,7.36
2019-04-10T01:05:43.735Z,7.31
2019-04-10T01:10:46.279Z,7.25
2019-04-10T01:13:14.917Z,7.25
2019-04-10T01:18:15.869Z,7.24
2019-04-10T01:21:02.235Z,7.21
2019-04-10T01:23:30.934Z,7.21
2019-04-10T01:25:59.440Z,7.20
2019-04-10T01:28:27.191Z,7.18
2019-04-10T01:30:54.974Z,7.19
2019-04-10T01:33:43.082Z,7.19
2019-04-10T01:36:29.867Z,7.13
2019-04-10T01:39:16.283Z,7.07
2019-04-10T01:42:02.756Z,7.00
2019-04-10T01:47:17.209Z,6.96
2019-04-10T01:49:46.969Z,6.96
2019-04-10T01:52:33.382Z,6.91
2019-04-10T01:57:53.337Z,6.80
2019-04-10T02:03:14.086Z,6.71
2019-04-10T02:06:01.017Z,6.70
2019-04-10T02:08:49.702Z,6.65
2019-04-10T02:11:18.276Z,6.65
2019-04-10T02:14:05.714Z,6.62
2019-04-10T02:16:53.040Z,6.59
2019-04-10T02:19:40.571Z,6.56
2019-04-10T02:22:08.929Z,6.56
2019-04-10T02:24:36.595Z,6.46
2019-04-10T02:27:04.354Z,6.46
2019-04-10T02:29:32.150Z,6.41
2019-04-10T02:31:59.993Z,6.37
2019-04-10T02:34:30.681Z,6.35
2019-04-10T02:36:58.690Z,6.30
2019-04-10T02:39:34.090Z,6.16
2019-04-10T02:42:15.934Z,6.09
2019-04-10T02:44:45.736Z,6.00
2019-04-10T02:47:14.677Z,6.00
2019-04-10T02:49:42.603Z,6.01
2019-04-10T02:52:30.914Z,6.01
2019-04-10T02:55:18.550Z,5.94
2019-04-10T02:58:06.058Z,5.94
2019-04-10T03:00:37.908Z,5.87
2019-04-10T03:03:25.539Z,5.78
2019-04-10T03:06:13.445Z,5.70
2019-04-10T03:09:17.029Z,5.58
2019-04-10T03:11:49.845Z,5.56
2019-04-10T03:14:38.987Z,5.54
2019-04-10T03:17:07.981Z,5.54
2019-04-10T03:19:56.076Z,5.62
2019-04-10T03:22:26.357Z,5.62
2019-04-10T03:25:17.003Z,5.73
2019-04-10T03:28:05.046Z,5.69
2019-04-10T03:33:29.323Z,5.63
2019-04-10T03:35:55.323Z,5.63
2019-04-10T03:38:55.230Z,5.59
2019-04-10T03:41:30.317Z,5.59
2019-04-10T03:43:58.454Z,5.53
2019-04-10T03:46:27.737Z,5.49
2019-04-10T03:48:58.450Z,5.43
2019-04-10T03:51:45.067Z,5.33
2019-04-10T03:54:13.195Z,5.31
2019-04-10T03:56:42.503Z,5.31
2019-04-10T04:01:44.662Z,5.33
2019-04-10T04:04:31.282Z,5.30
2019-04-10T04:06:59.834Z,5.30
2019-04-10T04:12:02.912Z,5.27
2019-04-10T04:14:30.574Z,5.21
2019-04-10T04:17:17.250Z,5.15
2019-04-10T04:22:18.813Z,5.07
2019-04-10T04:25:06.760Z,5.07
2019-04-10T04:30:26.593Z,4.99
2019-04-10T04:32:54.370Z,4.94
2019-04-10T04:35:22.303Z,4.94
2019-04-10T04:37:50.583Z,4.88
2019-04-10T04:40:19.678Z,4.84
2019-04-10T04:43:07.876Z,4.85
2019-04-10T04:45:37.559Z,4.85
2019-04-10T04:48:24.645Z,4.85
2019-04-10T04:50:52.350Z,4.82
2019-04-10T04:58:41.624Z,4.79
2019-04-10T05:01:28.032Z,4.77
2019-04-10T05:03:55.749Z,4.75
2019-04-10T05:06:24.369Z,4.73
2019-04-10T05:09:25.935Z,4.73
2019-04-10T05:11:46.814Z,4.73
2019-04-10T05:14:17.505Z,4.65
2019-04-10T05:16:46.456Z,4.65
2019-04-10T05:19:33.963Z,4.66
2019-04-10T05:22:35.898Z,4.66
2019-04-10T05:25:09.088Z,4.70
2019-04-10T05:27:37.129Z,4.69
2019-04-10T05:30:06.269Z,4.71
2019-04-10T05:32:52.992Z,4.74
2019-04-10T05:35:32.851Z,4.84
2019-04-10T05:38:08.990Z,4.88
2019-04-10T05:40:36.749Z,4.88
2019-04-10T05:43:24.014Z,4.95
2019-04-10T05:45:53.008Z,5.02
2019-04-10T05:48:40.513Z,5.10
2019-04-10T05:51:09.400Z,5.18
2019-04-10T05:59:05.272Z,5.60
2019-04-10T06:01:37.299Z,5.69
2019-04-10T06:04:05.493Z,5.76
2019-04-10T06:06:52.703Z,5.80
2019-04-10T06:09:52.035Z,5.80
2019-04-10T06:12:09.854Z,5.86
2019-04-10T06:14:39.882Z,5.91
2019-04-10T06:17:08.154Z,5.97
2019-04-10T06:19:54.895Z,6.11
2019-04-10T06:22:26.316Z,6.11
2019-04-10T06:28:01.019Z,6.23
2019-04-10T06:33:51.334Z,6.50
2019-04-10T06:36:09.177Z,6.50
2019-04-10T06:38:58.441Z,6.58
2019-04-10T06:41:26.454Z,6.66
2019-04-10T06:43:55.276Z,6.65
2019-04-10T06:46:24.241Z,6.67
2019-04-10T06:48:54.723Z,6.70
2019-04-10T06:51:22.604Z,6.81
2019-04-10T06:54:00.192Z,6.81
2019-04-10T06:56:19.412Z,7.03
2019-04-10T06:58:47.782Z,7.13
2019-04-10T07:01:21.041Z,7.17
2019-04-10T07:03:56.548Z,7.17
2019-04-10T07:06:20.619Z,7.34
2019-04-10T07:08:47.953Z,7.44
2019-04-10T07:11:18.059Z,7.53
2019-04-10T07:13:44.954Z,7.66
2019-04-10T07:16:12.767Z,7.66
2019-04-10T07:18:41.180Z,7.79
2019-04-10T07:21:10.510Z,7.94
2019-04-10T07:23:38.721Z,8.03
2019-04-10T07:26:06.321Z,8.19
2019-04-10T07:28:36.574Z,8.28
2019-04-10T07:31:08.098Z,8.33
2019-04-10T07:33:37.062Z,8.39
2019-04-10T07:36:11.230Z,8.46
2019-04-10T07:38:37.224Z,8.46
2019-04-10T07:41:11.202Z,8.62
2019-04-10T07:43:34.391Z,8.69
2019-04-10T07:46:02.379Z,8.74
2019-04-10T07:48:33.511Z,8.82
2019-04-10T07:51:01.458Z,8.92
2019-04-10T07:53:33.177Z,8.92
2019-04-10T07:56:07.627Z,9.02
2019-04-10T07:58:35.489Z,9.18
2019-04-10T08:01:03.273Z,9.18
2019-04-10T08:03:31.126Z,9.28
2019-04-10T08:06:00.403Z,9.44
2019-04-10T08:08:28.106Z,9.53
2019-04-10T08:10:55.970Z,9.60
2019-04-10T08:13:24.603Z,9.60
2019-04-10T08:16:17.394Z,9.82
2019-04-10T08:18:45.689Z,9.82
2019-04-10T08:21:13.506Z,10.02
2019-04-10T08:23:44.589Z,10.17
2019-04-10T08:26:12.534Z,10.34
2019-04-10T08:28:46.168Z,10.46
2019-04-10T08:31:14.874Z,10.46
2019-04-10T08:33:52.641Z,10.60
2019-04-10T08:36:21.488Z,10.60
2019-04-10T08:38:49.349Z,10.70
2019-04-10T08:41:17.219Z,10.89
2019-04-10T08:43:45.937Z,10.98
2019-04-10T08:46:13.962Z,10.98
2019-04-10T08:48:41.517Z,11.17
2019-04-10T08:51:15.106Z,11.17
2019-04-10T08:53:45.233Z,11.41
2019-04-10T08:56:16.254Z,11.55
2019-04-10T08:58:48.195Z,11.55
2019-04-10T09:01:15.886Z,11.67
2019-04-10T09:03:43.551Z,11.79
2019-04-10T09:06:11.282Z,11.93
2019-04-10T09:08:39.246Z,12.38
2019-04-10T09:11:09.821Z,12.38
2019-04-10T09:13:37.531Z,12.63
2019-04-10T09:16:06.588Z,12.85
2019-04-10T09:18:34.287Z,13.13
2019-04-10T09:21:04.930Z,13.45
2019-04-10T09:23:39.799Z,14.04
2019-04-10T09:26:02.094Z,14.34
2019-04-10T09:28:30.661Z,14.34
2019-04-10T09:30:59.487Z,15.04
2019-04-10T09:33:30.461Z,15.04
2019-04-10T09:35:57.170Z,15.40
2019-04-10T09:38:26.385Z,15.72
2019-04-10T09:40:55.015Z,15.98
2019-04-10T09:43:23.176Z,16.48
2019-04-10T09:45:51.471Z,16.48
2019-04-10T09:48:19.192Z,16.70
2019-04-10T09:50:48.052Z,17.13
2019-04-10T09:53:17.042Z,17.45
2019-04-10T09:55:45.096Z,18.15
2019-04-10T09:58:15.195Z,18.15
2019-04-10T10:00:44.498Z,18.69
2019-04-10T10:03:12.148Z,18.87
2019-04-10T10:05:42.721Z,18.87
2019-04-10T10:08:12.585Z,19.15
2019-04-10T10:10:41.653Z,19.28
2019-04-10T10:13:11.188Z,19.56
2019-04-10T10:15:41.140Z,19.56
2019-04-10T10:18:08.875Z,19.74
2019-04-10T10:20:37.613Z,20.07
2019-04-10T10:23:05.655Z,20.56
2019-04-10T10:25:43.641Z,20.83
2019-04-10T10:28:15.196Z,20.83
2019-04-10T10:30:43.858Z,21.21
2019-04-10T10:33:13.180Z,21.53
2019-04-10T10:35:43.199Z,21.81
2019-04-10T10:38:17.479Z,22.22
2019-04-10T10:40:48.751Z,22.22
2019-04-10T10:43:18.305Z,22.46
2019-04-10T10:45:46.895Z,22.67
2019-04-10T10:48:15.622Z,22.72
2019-04-10T10:50:45.705Z,22.81
2019-04-10T10:53:14.266Z,22.99
2019-04-10T10:55:45.497Z,22.99
2019-04-10T10:58:13.457Z,23.10
2019-04-10T11:00:43.117Z,23.20
2019-04-10T11:03:13.987Z,23.20
2019-04-10T11:05:42.320Z,23.26
2019-04-10T11:08:11.074Z,23.38
2019-04-10T11:10:39.036Z,23.38
2019-04-10T11:13:06.971Z,23.61
2019-04-10T11:15:42.190Z,23.84
2019-04-10T11:18:06.465Z,24.06
2019-04-10T11:20:37.197Z,24.15
2019-04-10T11:23:06.127Z,24.15
2019-04-10T11:25:33.930Z,24.23
2019-04-10T11:28:01.866Z,24.30
2019-04-10T11:30:29.521Z,24.48
2019-04-10T11:32:58.190Z,24.55
2019-04-10T11:36:17.605Z,24.60
2019-04-10T11:38:01.394Z,24.19
2019-04-10T11:40:34.321Z,24.29
2019-04-10T11:43:07.766Z,24.29
2019-04-10T11:45:43.076Z,24.42
2019-04-10T11:48:07.731Z,24.50
2019-04-10T11:50:38.079Z,24.50
2019-04-10T11:53:09.605Z,24.48
2019-04-10T11:55:43.882Z,24.50
2019-04-10T11:58:13.805Z,24.50
2019-04-10T12:00:47.789Z,24.74
2019-04-10T12:03:14.805Z,24.43
2019-04-10T12:05:42.424Z,24.50
2019-04-10T12:08:40.260Z,24.76
2019-04-10T12:13:30.811Z,25.50
2019-04-10T12:15:58.936Z,25.49
2019-04-10T12:18:26.801Z,25.49
2019-04-10T12:20:55.493Z,25.63
2019-04-10T12:23:23.399Z,25.74
2019-04-10T12:25:59.078Z,25.93
2019-04-10T12:28:27.712Z,25.99
2019-04-10T12:30:57.958Z,25.95
2019-04-10T12:33:31.719Z,25.58
2019-04-10T12:36:00.319Z,25.58
2019-04-10T12:38:29.830Z,25.44
2019-04-10T12:40:57.459Z,25.45
2019-04-10T12:43:25.917Z,25.07
2019-04-10T12:46:02.565Z,24.51
2019-04-10T12:48:31.815Z,24.26
2019-04-10T12:51:01.387Z,24.27
2019-04-10T12:53:29.606Z,24.31
2019-04-10T12:56:00.523Z,23.72
2019-04-10T12:58:28.876Z,23.72
2019-04-10T13:00:56.562Z,23.09
2019-04-10T13:03:25.088Z,23.12
2019-04-10T13:05:53.615Z,22.92
2019-04-10T13:08:26.889Z,22.92
2019-04-10T13:10:51.657Z,22.59
2019-04-10T13:13:19.979Z,22.59
2019-04-10T13:15:47.730Z,22.24
2019-04-10T13:18:16.317Z,21.95
2019-04-10T13:20:44.206Z,21.09
2019-04-10T13:23:13.934Z,21.09
2019-04-10T13:26:00.131Z,20.78
2019-04-10T13:28:19.863Z,20.78
2019-04-10T13:30:55.261Z,21.00
2019-04-10T13:33:22.664Z,21.00
2019-04-10T13:35:51.165Z,21.10
2019-04-10T13:38:26.639Z,20.75
2019-04-10T13:40:52.210Z,20.53
2019-04-10T13:43:20.560Z,20.06
2019-04-10T13:45:48.666Z,19.32
2019-04-10T13:48:16.563Z,19.32
2019-04-10T13:50:44.419Z,18.86
2019-04-10T13:53:13.435Z,18.63
2019-04-10T13:55:44.399Z,18.58
2019-04-10T13:58:12.417Z,18.58
2019-04-10T14:00:45.082Z,18.65
2019-04-10T14:03:19.313Z,18.36
2019-04-10T14:05:50.980Z,18.36
2019-04-10T14:08:18.773Z,18.49
2019-04-10T14:10:46.976Z,18.49
2019-04-10T14:13:33.415Z,18.51
2019-04-10T14:16:01.262Z,18.40
2019-04-10T14:18:50.843Z,18.43
2019-04-10T14:21:20.665Z,18.32
2019-04-10T14:23:48.727Z,18.32
2019-04-10T14:26:45.960Z,18.38
2019-04-10T14:29:14.295Z,18.66
2019-04-10T14:31:53.463Z,18.79
2019-04-10T14:34:24.405Z,18.87
2019-04-10T14:36:52.735Z,18.87
2019-04-10T14:39:27.248Z,18.74
2019-04-10T14:41:56.495Z,18.74
2019-04-10T14:44:24.357Z,18.74
2019-04-10T14:46:51.998Z,18.74
2019-04-10T14:49:20.788Z,18.58
2019-04-10T14:51:48.581Z,18.53
2019-04-10T14:54:17.312Z,18.57
2019-04-10T14:56:46.362Z,18.66
2019-04-10T14:59:13.981Z,18.85
2019-04-10T15:01:46.266Z,19.08
2019-04-10T15:04:11.697Z,19.08
2019-04-10T15:06:39.608Z,19.27
2019-04-10T15:09:18.707Z,19.59
2019-04-10T15:11:38.947Z,19.85
2019-04-10T15:14:07.632Z,20.02
2019-04-10T15:16:36.672Z,20.09
2019-04-10T15:19:06.465Z,20.14
2019-04-10T15:21:34.667Z,20.12
2019-04-10T15:24:03.551Z,20.18
2019-04-10T15:26:32.357Z,20.18
2019-04-10T15:29:00.267Z,20.29
2019-04-10T15:31:29.060Z,20.61
2019-04-10T15:33:58.473Z,20.98
2019-04-10T15:36:28.412Z,21.21
2019-04-10T15:39:02.720Z,21.33
2019-04-10T15:41:30.760Z,21.19
2019-04-10T15:44:01.505Z,20.92
2019-04-10T15:46:29.309Z,20.81
2019-04-10T15:48:58.831Z,20.92
2019-04-10T15:51:28.052Z,21.36
2019-04-10T15:53:55.690Z,21.88
2019-04-10T15:56:23.319Z,21.88
2019-04-10T15:58:52.128Z,22.27
2019-04-10T16:01:21.562Z,22.27
2019-04-10T16:03:50.586Z,22.36
2019-04-10T16:06:18.658Z,22.42
2019-04-10T16:08:46.243Z,22.35
2019-04-10T16:11:41.938Z,21.19
2019-04-10T16:14:20.620Z,21.19
2019-04-10T16:17:07.491Z,18.52
2019-04-10T16:19:59.845Z,17.44
2019-04-10T16:22:31.273Z,17.44
2019-04-10T16:25:01.259Z,16.56
2019-04-10T16:27:29.018Z,15.48
2019-04-10T16:29:57.236Z,15.03
2019-04-10T16:32:28.508Z,14.62
2019-04-10T16:34:56.795Z,14.62
2019-04-10T16:37:26.339Z,14.27
2019-04-10T16:40:02.712Z,13.94
2019-04-10T16:42:27.624Z,13.68
2019-04-10T16:44:57.624Z,13.45
2019-04-10T16:47:26.048Z,13.23
2019-04-10T16:49:53.635Z,13.06
2019-04-10T16:52:25.124Z,12.94
2019-04-10T16:54:54.096Z,12.81
2019-04-10T16:57:22.664Z,12.69
2019-04-10T16:59:50.900Z,12.57
2019-04-10T17:02:18.588Z,12.38
2019-04-10T17:04:46.217Z,12.38
2019-04-10T17:07:16.926Z,12.20
2019-04-10T17:09:45.464Z,12.20
2019-04-10T17:12:13.631Z,12.00
2019-04-10T17:14:47.829Z,11.88
2019-04-10T17:17:15.771Z,11.77
2019-04-10T17:19:52.115Z,11.77
2019-04-10T17:22:24.165Z,11.55
2019-04-10T17:27:52.133Z,11.45
2019-04-10T17:33:46.167Z,11.15
2019-04-10T17:36:14.110Z,11.15
2019-04-10T17:39:02.986Z,11.08
2019-04-10T17:44:25.629Z,10.93
2019-04-10T17:47:12.485Z,10.74
2019-04-10T17:50:00.152Z,10.74
2019-04-10T17:52:28.408Z,10.66
2019-04-10T17:55:15.557Z,10.48
2019-04-10T18:00:35.566Z,10.41
2019-04-10T18:05:57.178Z,10.21
2019-04-10T18:08:27.113Z,10.21
2019-04-10T18:10:56.014Z,10.12
2019-04-10T18:13:24.652Z,10.06
2019-04-10T18:18:27.488Z,9.94
2019-04-10T18:23:33.608Z,9.80
2019-04-10T18:26:21.471Z,9.74
2019-04-10T18:29:07.902Z,9.58
2019-04-10T18:31:54.329Z,9.58
2019-04-10T18:34:22.250Z,9.40
2019-04-10T18:36:52.439Z,9.40
2019-04-10T18:39:19.578Z,9.34
2019-04-10T18:41:47.182Z,9.28
2019-04-10T18:44:15.143Z,9.22
2019-04-10T18:46:46.790Z,9.09
2019-04-10T18:49:16.371Z,9.09
2019-04-10T18:51:50.022Z,9.04
2019-04-10T18:54:18.659Z,8.89
2019-04-10T18:59:54.620Z,8.85
2019-04-10T19:02:41.220Z,8.78
2019-04-10T19:05:27.907Z,8.70
2019-04-10T19:10:48.654Z,8.54
2019-04-10T19:13:35.027Z,8.54
2019-04-10T19:16:21.554Z,8.44
2019-04-10T19:18:50.172Z,8.44
2019-04-10T19:21:37.788Z,8.41
2019-04-10T19:24:24.263Z,8.32
2019-04-10T19:27:11.679Z,8.32
2019-04-10T19:32:33.401Z,8.09
2019-04-10T19:37:53.153Z,8.02
2019-04-10T19:40:33.763Z,7.95
2019-04-10T19:43:24.098Z,7.87
2019-04-10T19:48:29.621Z,7.68
2019-04-10T19:50:57.530Z,7.68
2019-04-10T19:53:25.130Z,7.68
2019-04-10T19:56:02.455Z,7.65
2019-04-10T19:58:30.235Z,7.64
2019-04-10T20:00:58.961Z,7.64
2019-04-10T20:03:45.953Z,7.57
2019-04-10T20:06:18.449Z,7.47
2019-04-10T20:09:06.260Z,7.44
2019-04-10T20:11:41.461Z,7.44
2019-04-10T20:14:22.549Z,7.37
2019-04-10T20:19:42.588Z,7.27
2019-04-10T20:25:06.296Z,7.19
2019-04-10T20:30:26.365Z,7.13
2019-04-10T20:33:08.762Z,7.13
2019-04-10T20:35:44.990Z,7.11
2019-04-10T20:38:13.402Z,7.06
2019-04-10T20:40:42.301Z,7.06
2019-04-10T20:43:31.042Z,7.04
2019-04-10T20:46:00.131Z,7.02
2019-04-10T20:48:29.328Z,6.98
2019-04-10T20:54:02.342Z,6.92
2019-04-10T20:56:30.650Z,6.89
2019-04-10T20:59:20.875Z,6.74
2019-04-10T21:01:49.098Z,6.74
2019-04-10T21:04:18.077Z,6.68
2019-04-10T21:07:04.923Z,6.64
2019-04-10T21:09:52.584Z,6.62
2019-04-10T21:12:21.108Z,6.62
2019-04-10T21:14:52.552Z,6.60
2019-04-10T21:19:55.875Z,6.48
2019-04-10T21:22:24.559Z,6.46
2019-04-10T21:24:52.212Z,6.46
2019-04-10T21:27:39.772Z,6.34
2019-04-10T21:30:26.947Z,6.34
2019-04-10T21:35:49.748Z,6.02
2019-04-10T21:38:21.365Z,5.92
2019-04-10T21:40:49.610Z,5.92
2019-04-10T21:43:36.774Z,5.72
2019-04-10T21:46:06.102Z,5.72
2019-04-10T21:48:54.948Z,5.55
2019-04-10T21:51:23.309Z,5.55
2019-04-10T21:54:10.003Z,5.37
2019-04-10T21:59:11.174Z,5.29
2019-04-10T22:01:38.803Z,5.16
2019-04-10T22:04:25.302Z,5.11
2019-04-10T22:07:11.912Z,5.11
2019-04-10T22:10:03.584Z,5.06
2019-04-10T22:18:23.246Z,4.95
2019-04-10T22:21:10.393Z,4.91
2019-04-10T22:23:38.443Z,4.88
2019-04-10T22:26:07.679Z,4.88
2019-04-10T22:28:35.332Z,4.80
2019-04-10T22:31:21.717Z,4.74
2019-04-10T22:36:41.577Z,4.64
2019-04-10T22:42:01.124Z,4.54
2019-04-10T22:44:36.686Z,4.54
2019-04-10T22:46:58.917Z,4.47
2019-04-10T22:49:26.693Z,4.43
2019-04-10T22:52:13.049Z,4.40
2019-04-10T22:54:40.823Z,4.38
2019-04-10T22:57:27.288Z,4.34
2019-04-10T22:59:55.342Z,4.34
2019-04-10T23:05:20.862Z,4.27
2019-04-10T23:08:09.455Z,4.23
2019-04-10T23:10:57.410Z,4.19
2019-04-10T23:13:45.882Z,4.15
2019-04-10T23:16:33.289Z,4.15
2019-04-10T23:19:01.578Z,4.08
2019-04-10T23:21:30.491Z,4.08
2019-04-10T23:29:24.695Z,3.95
2019-04-10T23:34:45.135Z,3.87
2019-04-10T23:37:15.013Z,3.87
2019-04-10T23:39:44.050Z,3.81
2019-04-10T23:42:30.725Z,3.69
2019-04-10T23:44:59.502Z,3.69
2019-04-10T23:47:28.430Z,3.62
2019-04-10T23:50:16.553Z,3.52
2019-04-10T23:52:45.322Z,3.52
2019-04-10T23:55:13.582Z,3.47
2019-04-10T23:58:02.101Z,3.47
